sensor_id;sensor_type;location;lat;lon;timestamp;P1;durP1;ratioP1;P2;durP2;ratioP2
34828;SDS011;21042;47.620;12.188;2023-05-31T00:01:06;10.15;;;4.63;;
34828;SDS011;21042;47.620;12.188;2023-05-31T00:03:32;9.55;;;4.45;;
34828;SDS011;21042;47.620;12.188;2023-05-31T00:06:00;10.80;;;4.70;;
34828;SDS011;21042;47.620;12.188;2023-05-31T00:08:27;12.48;;;4.72;;
34828;SDS011;21042;47.620;12.188;2023-05-31T00:10:54;8.57;;;5.05;;
34828;SDS011;21042;47.620;12.188;2023-05-31T00:13:21;9.60;;;5.03;;
34828;SDS011;21042;47.620;12.188;2023-05-31T00:15:48;8.98;;;4.95;;
34828;SDS011;21042;47.620;12.188;2023-05-31T00:18:14;7.85;;;4.60;;
34828;SDS011;21042;47.620;12.188;2023-05-31T00:20:41;7.68;;;4.65;;
34828;SDS011;21042;47.620;12.188;2023-05-31T00:23:08;9.10;;;4.75;;
34828;SDS011;21042;47.620;12.188;2023-05-31T00:25:36;10.00;;;5.03;;
34828;SDS011;21042;47.620;12.188;2023-05-31T00:28:03;8.65;;;4.90;;
34828;SDS011;21042;47.620;12.188;2023-05-31T00:30:29;8.43;;;4.88;;
34828;SDS011;21042;47.620;12.188;2023-05-31T00:32:56;10.70;;;4.95;;
34828;SDS011;21042;47.620;12.188;2023-05-31T00:35:23;9.00;;;4.80;;
34828;SDS011;21042;47.620;12.188;2023-05-31T00:37:50;8.95;;;4.28;;
34828;SDS011;21042;47.620;12.188;2023-05-31T00:40:17;16.25;;;5.03;;
34828;SDS011;21042;47.620;12.188;2023-05-31T00:42:43;8.82;;;4.35;;
34828;SDS011;21042;47.620;12.188;2023-05-31T00:45:11;9.63;;;5.28;;
34828;SDS011;21042;47.620;12.188;2023-05-31T00:47:38;10.13;;;4.88;;
34828;SDS011;21042;47.620;12.188;2023-05-31T00:50:05;9.38;;;5.43;;
34828;SDS011;21042;47.620;12.188;2023-05-31T00:52:33;8.55;;;4.88;;
34828;SDS011;21042;47.620;12.188;2023-05-31T00:55:01;8.55;;;4.90;;
34828;SDS011;21042;47.620;12.188;2023-05-31T00:57:28;8.05;;;4.47;;
34828;SDS011;21042;47.620;12.188;2023-05-31T01:02:23;8.20;;;4.07;;
34828;SDS011;21042;47.620;12.188;2023-05-31T01:04:50;9.77;;;4.30;;
34828;SDS011;21042;47.620;12.188;2023-05-31T01:07:16;9.20;;;4.82;;
34828;SDS011;21042;47.620;12.188;2023-05-31T01:09:43;9.50;;;5.28;;
34828;SDS011;21042;47.620;12.188;2023-05-31T01:12:16;8.65;;;5.18;;
34828;SDS011;21042;47.620;12.188;2023-05-31T01:15:08;8.70;;;4.80;;
34828;SDS011;21042;47.620;12.188;2023-05-31T01:17:51;9.13;;;4.63;;
34828;SDS011;21042;47.620;12.188;2023-05-31T01:20:35;11.60;;;5.22;;
34828;SDS011;21042;47.620;12.188;2023-05-31T01:28:59;11.50;;;4.88;;
34828;SDS011;21042;47.620;12.188;2023-05-31T01:31:30;13.00;;;5.32;;
34828;SDS011;21042;47.620;12.188;2023-05-31T01:34:00;10.07;;;5.20;;
34828;SDS011;21042;47.620;12.188;2023-05-31T01:36:27;11.32;;;5.25;;
34828;SDS011;21042;47.620;12.188;2023-05-31T01:38:54;8.07;;;5.53;;
34828;SDS011;21042;47.620;12.188;2023-05-31T01:41:20;7.03;;;4.82;;
34828;SDS011;21042;47.620;12.188;2023-05-31T01:43:51;9.60;;;5.18;;
34828;SDS011;21042;47.620;12.188;2023-05-31T01:46:20;7.78;;;4.65;;
34828;SDS011;21042;47.620;12.188;2023-05-31T01:48:47;8.20;;;5.07;;
34828;SDS011;21042;47.620;12.188;2023-05-31T01:51:15;18.02;;;5.13;;
34828;SDS011;21042;47.620;12.188;2023-05-31T01:53:43;9.45;;;5.32;;
34828;SDS011;21042;47.620;12.188;2023-05-31T01:56:10;9.40;;;5.20;;
34828;SDS011;21042;47.620;12.188;2023-05-31T01:58:38;8.23;;;4.78;;
34828;SDS011;21042;47.620;12.188;2023-05-31T02:01:11;8.48;;;5.28;;
34828;SDS011;21042;47.620;12.188;2023-05-31T02:03:38;10.93;;;5.20;;
34828;SDS011;21042;47.620;12.188;2023-05-31T02:06:05;10.05;;;5.05;;
34828;SDS011;21042;47.620;12.188;2023-05-31T02:08:32;11.95;;;5.75;;
34828;SDS011;21042;47.620;12.188;2023-05-31T02:11:00;11.63;;;5.07;;
34828;SDS011;21042;47.620;12.188;2023-05-31T02:13:28;10.45;;;5.10;;
34828;SDS011;21042;47.620;12.188;2023-05-31T02:15:56;10.13;;;5.15;;
34828;SDS011;21042;47.620;12.188;2023-05-31T02:18:24;11.93;;;6.00;;
34828;SDS011;21042;47.620;12.188;2023-05-31T02:20:54;9.70;;;6.28;;
34828;SDS011;21042;47.620;12.188;2023-05-31T02:25:49;11.35;;;5.07;;
34828;SDS011;21042;47.620;12.188;2023-05-31T02:28:16;8.50;;;5.18;;
34828;SDS011;21042;47.620;12.188;2023-05-31T02:30:56;9.30;;;5.25;;
34828;SDS011;21042;47.620;12.188;2023-05-31T02:33:26;7.35;;;5.25;;
34828;SDS011;21042;47.620;12.188;2023-05-31T02:35:54;14.85;;;5.65;;
34828;SDS011;21042;47.620;12.188;2023-05-31T02:38:23;9.95;;;5.55;;
34828;SDS011;21042;47.620;12.188;2023-05-31T02:40:50;9.10;;;5.32;;
34828;SDS011;21042;47.620;12.188;2023-05-31T02:43:17;8.88;;;5.22;;
34828;SDS011;21042;47.620;12.188;2023-05-31T02:45:43;9.30;;;5.43;;
34828;SDS011;21042;47.620;12.188;2023-05-31T02:48:11;11.70;;;5.43;;
34828;SDS011;21042;47.620;12.188;2023-05-31T02:50:39;10.43;;;5.50;;
34828;SDS011;21042;47.620;12.188;2023-05-31T02:53:20;9.40;;;5.50;;
34828;SDS011;21042;47.620;12.188;2023-05-31T02:55:56;10.77;;;6.18;;
34828;SDS011;21042;47.620;12.188;2023-05-31T02:58:40;8.25;;;4.80;;
34828;SDS011;21042;47.620;12.188;2023-05-31T03:01:30;8.30;;;5.25;;
34828;SDS011;21042;47.620;12.188;2023-05-31T03:04:12;11.50;;;5.65;;
34828;SDS011;21042;47.620;12.188;2023-05-31T03:06:39;10.27;;;5.60;;
34828;SDS011;21042;47.620;12.188;2023-05-31T03:09:06;9.65;;;5.13;;
34828;SDS011;21042;47.620;12.188;2023-05-31T03:11:35;10.27;;;5.45;;
34828;SDS011;21042;47.620;12.188;2023-05-31T03:14:01;6.65;;;5.15;;
34828;SDS011;21042;47.620;12.188;2023-05-31T03:16:43;11.45;;;5.68;;
34828;SDS011;21042;47.620;12.188;2023-05-31T03:19:11;8.20;;;5.07;;
34828;SDS011;21042;47.620;12.188;2023-05-31T03:21:43;8.52;;;4.85;;
34828;SDS011;21042;47.620;12.188;2023-05-31T03:24:10;9.73;;;5.57;;
34828;SDS011;21042;47.620;12.188;2023-05-31T03:26:37;9.63;;;5.63;;
34828;SDS011;21042;47.620;12.188;2023-05-31T03:29:04;11.93;;;5.50;;
34828;SDS011;21042;47.620;12.188;2023-05-31T03:31:33;9.05;;;5.50;;
34828;SDS011;21042;47.620;12.188;2023-05-31T03:34:00;6.43;;;4.72;;
34828;SDS011;21042;47.620;12.188;2023-05-31T03:36:27;8.32;;;4.85;;
34828;SDS011;21042;47.620;12.188;2023-05-31T03:38:56;10.10;;;5.63;;
34828;SDS011;21042;47.620;12.188;2023-05-31T03:41:23;10.95;;;5.90;;
34828;SDS011;21042;47.620;12.188;2023-05-31T03:43:50;8.80;;;5.07;;
34828;SDS011;21042;47.620;12.188;2023-05-31T03:46:18;10.02;;;5.60;;
34828;SDS011;21042;47.620;12.188;2023-05-31T03:48:47;8.82;;;5.30;;
34828;SDS011;21042;47.620;12.188;2023-05-31T03:51:13;7.38;;;5.13;;
34828;SDS011;21042;47.620;12.188;2023-05-31T03:53:40;6.40;;;4.82;;
34828;SDS011;21042;47.620;12.188;2023-05-31T03:56:07;9.13;;;5.57;;
34828;SDS011;21042;47.620;12.188;2023-05-31T03:58:34;11.70;;;5.70;;
34828;SDS011;21042;47.620;12.188;2023-05-31T04:01:01;10.20;;;5.50;;
34828;SDS011;21042;47.620;12.188;2023-05-31T04:03:28;10.93;;;5.88;;
34828;SDS011;21042;47.620;12.188;2023-05-31T04:05:55;14.20;;;6.60;;
34828;SDS011;21042;47.620;12.188;2023-05-31T04:08:22;12.07;;;6.30;;
34828;SDS011;21042;47.620;12.188;2023-05-31T04:10:50;9.35;;;6.65;;
34828;SDS011;21042;47.620;12.188;2023-05-31T04:13:17;16.20;;;7.55;;
34828;SDS011;21042;47.620;12.188;2023-05-31T04:15:44;15.75;;;6.82;;
34828;SDS011;21042;47.620;12.188;2023-05-31T04:18:11;10.15;;;7.25;;
34828;SDS011;21042;47.620;12.188;2023-05-31T04:20:37;15.23;;;6.15;;
34828;SDS011;21042;47.620;12.188;2023-05-31T04:23:04;12.38;;;6.28;;
34828;SDS011;21042;47.620;12.188;2023-05-31T04:25:31;9.63;;;5.95;;
34828;SDS011;21042;47.620;12.188;2023-05-31T04:27:58;12.95;;;6.55;;
34828;SDS011;21042;47.620;12.188;2023-05-31T04:30:25;15.45;;;6.65;;
34828;SDS011;21042;47.620;12.188;2023-05-31T04:32:53;11.18;;;6.38;;
34828;SDS011;21042;47.620;12.188;2023-05-31T04:35:23;14.35;;;6.60;;
34828;SDS011;21042;47.620;12.188;2023-05-31T04:37:50;8.55;;;5.78;;
34828;SDS011;21042;47.620;12.188;2023-05-31T04:40:19;10.85;;;6.38;;
34828;SDS011;21042;47.620;12.188;2023-05-31T04:42:46;11.73;;;6.85;;
34828;SDS011;21042;47.620;12.188;2023-05-31T04:45:24;15.32;;;7.32;;
34828;SDS011;21042;47.620;12.188;2023-05-31T04:47:52;16.25;;;7.80;;
34828;SDS011;21042;47.620;12.188;2023-05-31T04:50:19;13.05;;;7.45;;
34828;SDS011;21042;47.620;12.188;2023-05-31T04:52:46;14.52;;;7.70;;
34828;SDS011;21042;47.620;12.188;2023-05-31T04:55:13;13.48;;;7.68;;
34828;SDS011;21042;47.620;12.188;2023-05-31T04:57:40;15.23;;;8.32;;
34828;SDS011;21042;47.620;12.188;2023-05-31T05:00:09;19.38;;;8.20;;
34828;SDS011;21042;47.620;12.188;2023-05-31T05:05:14;9.70;;;6.88;;
34828;SDS011;21042;47.620;12.188;2023-05-31T05:07:42;13.25;;;7.95;;
34828;SDS011;21042;47.620;12.188;2023-05-31T05:10:09;11.00;;;7.18;;
34828;SDS011;21042;47.620;12.188;2023-05-31T05:12:36;12.68;;;7.57;;
34828;SDS011;21042;47.620;12.188;2023-05-31T05:15:04;14.52;;;7.88;;
34828;SDS011;21042;47.620;12.188;2023-05-31T05:17:32;17.02;;;8.20;;
34828;SDS011;21042;47.620;12.188;2023-05-31T05:19:59;14.32;;;8.02;;
34828;SDS011;21042;47.620;12.188;2023-05-31T05:22:27;11.27;;;7.72;;
34828;SDS011;21042;47.620;12.188;2023-05-31T05:24:55;11.80;;;7.90;;
34828;SDS011;21042;47.620;12.188;2023-05-31T05:27:22;11.35;;;7.80;;
34828;SDS011;21042;47.620;12.188;2023-05-31T05:29:53;11.75;;;7.22;;
34828;SDS011;21042;47.620;12.188;2023-05-31T05:32:20;10.27;;;7.68;;
34828;SDS011;21042;47.620;12.188;2023-05-31T05:34:47;16.10;;;7.65;;
34828;SDS011;21042;47.620;12.188;2023-05-31T05:37:15;11.55;;;7.03;;
34828;SDS011;21042;47.620;12.188;2023-05-31T05:39:41;14.73;;;7.97;;
34828;SDS011;21042;47.620;12.188;2023-05-31T05:42:08;13.43;;;8.60;;
34828;SDS011;21042;47.620;12.188;2023-05-31T05:44:35;16.88;;;8.65;;
34828;SDS011;21042;47.620;12.188;2023-05-31T05:47:02;14.30;;;7.47;;
34828;SDS011;21042;47.620;12.188;2023-05-31T05:49:30;12.10;;;7.13;;
34828;SDS011;21042;47.620;12.188;2023-05-31T05:51:57;15.35;;;7.65;;
34828;SDS011;21042;47.620;12.188;2023-05-31T05:54:24;11.80;;;7.82;;
34828;SDS011;21042;47.620;12.188;2023-05-31T05:56:51;14.73;;;7.90;;
34828;SDS011;21042;47.620;12.188;2023-05-31T05:59:17;13.07;;;7.55;;
34828;SDS011;21042;47.620;12.188;2023-05-31T06:01:57;12.32;;;6.80;;
34828;SDS011;21042;47.620;12.188;2023-05-31T06:04:25;13.60;;;6.90;;
34828;SDS011;21042;47.620;12.188;2023-05-31T06:06:51;15.15;;;7.22;;
34828;SDS011;21042;47.620;12.188;2023-05-31T06:09:18;11.93;;;7.30;;
34828;SDS011;21042;47.620;12.188;2023-05-31T06:11:45;12.95;;;6.57;;
34828;SDS011;21042;47.620;12.188;2023-05-31T06:14:12;11.40;;;7.47;;
34828;SDS011;21042;47.620;12.188;2023-05-31T06:16:43;11.20;;;6.55;;
34828;SDS011;21042;47.620;12.188;2023-05-31T06:19:11;12.20;;;6.80;;
34828;SDS011;21042;47.620;12.188;2023-05-31T06:21:39;11.70;;;6.78;;
34828;SDS011;21042;47.620;12.188;2023-05-31T06:24:06;10.70;;;6.22;;
34828;SDS011;21042;47.620;12.188;2023-05-31T06:26:33;11.52;;;6.45;;
34828;SDS011;21042;47.620;12.188;2023-05-31T06:29:02;12.50;;;6.75;;
34828;SDS011;21042;47.620;12.188;2023-05-31T06:31:58;12.02;;;5.90;;
34828;SDS011;21042;47.620;12.188;2023-05-31T06:34:30;11.43;;;6.70;;
34828;SDS011;21042;47.620;12.188;2023-05-31T06:36:58;10.98;;;6.72;;
34828;SDS011;21042;47.620;12.188;2023-05-31T06:39:27;9.52;;;6.43;;
34828;SDS011;21042;47.620;12.188;2023-05-31T06:41:53;14.77;;;7.22;;
34828;SDS011;21042;47.620;12.188;2023-05-31T06:44:41;10.50;;;6.28;;
34828;SDS011;21042;47.620;12.188;2023-05-31T06:47:54;10.90;;;6.70;;
34828;SDS011;21042;47.620;12.188;2023-05-31T06:50:46;14.98;;;6.82;;
34828;SDS011;21042;47.620;12.188;2023-05-31T06:53:31;10.38;;;6.50;;
34828;SDS011;21042;47.620;12.188;2023-05-31T06:56:20;9.65;;;6.38;;
34828;SDS011;21042;47.620;12.188;2023-05-31T06:58:47;12.20;;;6.72;;
34828;SDS011;21042;47.620;12.188;2023-05-31T07:01:14;11.88;;;5.90;;
34828;SDS011;21042;47.620;12.188;2023-05-31T07:03:41;8.70;;;5.80;;
34828;SDS011;21042;47.620;12.188;2023-05-31T07:06:08;10.45;;;6.57;;
34828;SDS011;21042;47.620;12.188;2023-05-31T07:08:36;11.45;;;6.30;;
34828;SDS011;21042;47.620;12.188;2023-05-31T07:11:30;12.38;;;7.00;;
34828;SDS011;21042;47.620;12.188;2023-05-31T07:16:28;8.88;;;5.50;;
34828;SDS011;21042;47.620;12.188;2023-05-31T07:18:57;8.57;;;6.28;;
34828;SDS011;21042;47.620;12.188;2023-05-31T07:21:24;10.63;;;6.38;;
34828;SDS011;21042;47.620;12.188;2023-05-31T07:23:51;13.43;;;6.35;;
34828;SDS011;21042;47.620;12.188;2023-05-31T07:26:18;13.80;;;6.40;;
34828;SDS011;21042;47.620;12.188;2023-05-31T07:28:44;8.52;;;5.50;;
34828;SDS011;21042;47.620;12.188;2023-05-31T07:31:12;13.93;;;5.97;;
34828;SDS011;21042;47.620;12.188;2023-05-31T07:33:43;8.90;;;5.65;;
34828;SDS011;21042;47.620;12.188;2023-05-31T07:36:10;11.80;;;5.35;;
34828;SDS011;21042;47.620;12.188;2023-05-31T07:41:04;13.00;;;6.00;;
34828;SDS011;21042;47.620;12.188;2023-05-31T07:43:31;12.15;;;6.55;;
34828;SDS011;21042;47.620;12.188;2023-05-31T07:45:58;8.77;;;6.05;;
34828;SDS011;21042;47.620;12.188;2023-05-31T07:48:25;12.13;;;6.28;;
34828;SDS011;21042;47.620;12.188;2023-05-31T07:50:52;12.27;;;6.65;;
34828;SDS011;21042;47.620;12.188;2023-05-31T07:53:19;14.82;;;6.40;;
34828;SDS011;21042;47.620;12.188;2023-05-31T07:55:45;9.15;;;6.13;;
34828;SDS011;21042;47.620;12.188;2023-05-31T07:58:12;9.57;;;5.63;;
34828;SDS011;21042;47.620;12.188;2023-05-31T08:00:39;8.32;;;5.95;;
34828;SDS011;21042;47.620;12.188;2023-05-31T08:03:06;12.77;;;6.00;;
34828;SDS011;21042;47.620;12.188;2023-05-31T08:05:33;11.77;;;6.10;;
34828;SDS011;21042;47.620;12.188;2023-05-31T08:08:00;9.93;;;6.07;;
34828;SDS011;21042;47.620;12.188;2023-05-31T08:10:27;11.63;;;6.20;;
34828;SDS011;21042;47.620;12.188;2023-05-31T08:12:53;13.20;;;5.38;;
34828;SDS011;21042;47.620;12.188;2023-05-31T08:17:47;11.90;;;6.57;;
34828;SDS011;21042;47.620;12.188;2023-05-31T08:20:14;12.77;;;6.10;;
34828;SDS011;21042;47.620;12.188;2023-05-31T08:22:43;15.93;;;6.88;;
34828;SDS011;21042;47.620;12.188;2023-05-31T08:25:11;9.52;;;5.72;;
34828;SDS011;21042;47.620;12.188;2023-05-31T08:27:39;9.93;;;5.63;;
34828;SDS011;21042;47.620;12.188;2023-05-31T08:30:09;9.38;;;5.55;;
34828;SDS011;21042;47.620;12.188;2023-05-31T08:32:37;15.43;;;6.10;;
34828;SDS011;21042;47.620;12.188;2023-05-31T08:35:04;11.07;;;6.38;;
34828;SDS011;21042;47.620;12.188;2023-05-31T08:37:35;10.20;;;6.07;;
34828;SDS011;21042;47.620;12.188;2023-05-31T08:40:05;10.02;;;6.28;;
34828;SDS011;21042;47.620;12.188;2023-05-31T08:45:13;12.68;;;5.72;;
34828;SDS011;21042;47.620;12.188;2023-05-31T08:47:43;13.68;;;6.93;;
34828;SDS011;21042;47.620;12.188;2023-05-31T08:50:17;11.60;;;6.30;;
34828;SDS011;21042;47.620;12.188;2023-05-31T08:52:45;11.02;;;5.93;;
34828;SDS011;21042;47.620;12.188;2023-05-31T08:57:39;9.57;;;5.32;;
34828;SDS011;21042;47.620;12.188;2023-05-31T09:00:07;10.02;;;5.55;;
34828;SDS011;21042;47.620;12.188;2023-05-31T09:02:37;10.88;;;6.00;;
34828;SDS011;21042;47.620;12.188;2023-05-31T09:07:37;11.55;;;5.47;;
34828;SDS011;21042;47.620;12.188;2023-05-31T09:10:04;14.40;;;5.80;;
34828;SDS011;21042;47.620;12.188;2023-05-31T09:12:33;11.60;;;6.32;;
34828;SDS011;21042;47.620;12.188;2023-05-31T09:15:01;9.18;;;5.63;;
34828;SDS011;21042;47.620;12.188;2023-05-31T09:17:28;9.02;;;5.20;;
34828;SDS011;21042;47.620;12.188;2023-05-31T09:19:55;10.18;;;5.22;;
34828;SDS011;21042;47.620;12.188;2023-05-31T09:22:22;10.35;;;5.75;;
34828;SDS011;21042;47.620;12.188;2023-05-31T09:24:56;12.18;;;6.45;;
34828;SDS011;21042;47.620;12.188;2023-05-31T09:27:24;11.82;;;5.25;;
34828;SDS011;21042;47.620;12.188;2023-05-31T09:29:52;8.85;;;5.80;;
34828;SDS011;21042;47.620;12.188;2023-05-31T09:32:20;12.73;;;5.57;;
34828;SDS011;21042;47.620;12.188;2023-05-31T09:34:47;9.15;;;4.95;;
34828;SDS011;21042;47.620;12.188;2023-05-31T09:37:20;10.00;;;6.40;;
34828;SDS011;21042;47.620;12.188;2023-05-31T09:39:55;11.68;;;5.70;;
34828;SDS011;21042;47.620;12.188;2023-05-31T09:42:26;9.18;;;4.90;;
34828;SDS011;21042;47.620;12.188;2023-05-31T09:44:53;10.68;;;5.47;;
34828;SDS011;21042;47.620;12.188;2023-05-31T09:47:26;14.57;;;5.90;;
34828;SDS011;21042;47.620;12.188;2023-05-31T09:49:55;11.15;;;6.00;;
34828;SDS011;21042;47.620;12.188;2023-05-31T09:52:26;12.68;;;5.55;;
34828;SDS011;21042;47.620;12.188;2023-05-31T09:54:55;10.05;;;5.25;;
34828;SDS011;21042;47.620;12.188;2023-05-31T09:57:32;7.70;;;5.13;;
34828;SDS011;21042;47.620;12.188;2023-05-31T10:00:13;11.27;;;4.95;;
34828;SDS011;21042;47.620;12.188;2023-05-31T10:02:46;7.95;;;5.03;;
34828;SDS011;21042;47.620;12.188;2023-05-31T10:05:15;9.30;;;4.72;;
34828;SDS011;21042;47.620;12.188;2023-05-31T10:07:43;9.45;;;4.80;;
34828;SDS011;21042;47.620;12.188;2023-05-31T10:10:15;17.15;;;5.88;;
34828;SDS011;21042;47.620;12.188;2023-05-31T10:12:51;10.43;;;5.40;;
34828;SDS011;21042;47.620;12.188;2023-05-31T10:15:27;9.82;;;5.25;;
34828;SDS011;21042;47.620;12.188;2023-05-31T10:20:29;15.23;;;4.72;;
34828;SDS011;21042;47.620;12.188;2023-05-31T10:23:03;13.38;;;4.82;;
34828;SDS011;21042;47.620;12.188;2023-05-31T10:25:38;11.45;;;4.65;;
34828;SDS011;21042;47.620;12.188;2023-05-31T10:28:13;10.75;;;4.93;;
34828;SDS011;21042;47.620;12.188;2023-05-31T10:30:43;9.02;;;4.90;;
34828;SDS011;21042;47.620;12.188;2023-05-31T10:33:12;11.88;;;4.68;;
34828;SDS011;21042;47.620;12.188;2023-05-31T10:35:40;11.52;;;4.35;;
34828;SDS011;21042;47.620;12.188;2023-05-31T10:40:55;7.72;;;4.50;;
34828;SDS011;21042;47.620;12.188;2023-05-31T10:46:06;9.25;;;4.95;;
34828;SDS011;21042;47.620;12.188;2023-05-31T10:48:45;12.48;;;4.20;;
34828;SDS011;21042;47.620;12.188;2023-05-31T10:51:42;8.52;;;4.90;;
34828;SDS011;21042;47.620;12.188;2023-05-31T10:54:17;11.13;;;4.68;;
34828;SDS011;21042;47.620;12.188;2023-05-31T10:56:52;10.05;;;4.05;;
34828;SDS011;21042;47.620;12.188;2023-05-31T10:59:21;7.63;;;4.28;;
34828;SDS011;21042;47.620;12.188;2023-05-31T11:01:52;11.82;;;4.68;;
34828;SDS011;21042;47.620;12.188;2023-05-31T11:04:20;9.27;;;4.70;;
34828;SDS011;21042;47.620;12.188;2023-05-31T11:06:51;10.05;;;4.30;;
34828;SDS011;21042;47.620;12.188;2023-05-31T11:09:19;9.18;;;4.18;;
34828;SDS011;21042;47.620;12.188;2023-05-31T11:11:47;9.80;;;4.60;;
34828;SDS011;21042;47.620;12.188;2023-05-31T11:19:20;11.65;;;4.30;;
34828;SDS011;21042;47.620;12.188;2023-05-31T11:21:53;11.65;;;4.20;;
34828;SDS011;21042;47.620;12.188;2023-05-31T11:24:29;10.00;;;3.97;;
34828;SDS011;21042;47.620;12.188;2023-05-31T11:26:57;11.07;;;4.38;;
34828;SDS011;21042;47.620;12.188;2023-05-31T11:32:11;7.45;;;3.78;;
34828;SDS011;21042;47.620;12.188;2023-05-31T11:34:48;10.35;;;4.47;;
34828;SDS011;21042;47.620;12.188;2023-05-31T11:37:16;10.57;;;3.92;;
34828;SDS011;21042;47.620;12.188;2023-05-31T11:39:43;12.20;;;4.78;;
34828;SDS011;21042;47.620;12.188;2023-05-31T11:42:10;7.53;;;3.72;;
34828;SDS011;21042;47.620;12.188;2023-05-31T11:44:41;15.18;;;4.03;;
34828;SDS011;21042;47.620;12.188;2023-05-31T11:47:10;10.07;;;4.18;;
34828;SDS011;21042;47.620;12.188;2023-05-31T11:49:37;15.90;;;3.97;;
34828;SDS011;21042;47.620;12.188;2023-05-31T11:52:04;9.40;;;4.25;;
34828;SDS011;21042;47.620;12.188;2023-05-31T11:56:59;7.90;;;3.80;;
34828;SDS011;21042;47.620;12.188;2023-05-31T11:59:31;9.43;;;3.63;;
34828;SDS011;21042;47.620;12.188;2023-05-31T12:02:00;9.93;;;3.92;;
34828;SDS011;21042;47.620;12.188;2023-05-31T12:04:29;7.20;;;3.85;;
34828;SDS011;21042;47.620;12.188;2023-05-31T12:06:57;7.72;;;3.42;;
34828;SDS011;21042;47.620;12.188;2023-05-31T12:09:24;7.38;;;3.42;;
34828;SDS011;21042;47.620;12.188;2023-05-31T12:11:52;5.72;;;3.60;;
34828;SDS011;21042;47.620;12.188;2023-05-31T12:14:21;9.07;;;3.80;;
34828;SDS011;21042;47.620;12.188;2023-05-31T12:16:49;11.73;;;3.80;;
34828;SDS011;21042;47.620;12.188;2023-05-31T12:19:16;8.40;;;3.80;;
34828;SDS011;21042;47.620;12.188;2023-05-31T12:21:43;8.07;;;3.30;;
34828;SDS011;21042;47.620;12.188;2023-05-31T12:24:14;10.57;;;4.15;;
34828;SDS011;21042;47.620;12.188;2023-05-31T12:26:42;10.52;;;3.83;;
34828;SDS011;21042;47.620;12.188;2023-05-31T12:29:11;8.40;;;3.80;;
34828;SDS011;21042;47.620;12.188;2023-05-31T12:31:38;11.30;;;3.92;;
34828;SDS011;21042;47.620;12.188;2023-05-31T12:34:07;8.63;;;3.95;;
34828;SDS011;21042;47.620;12.188;2023-05-31T12:39:14;5.55;;;3.50;;
34828;SDS011;21042;47.620;12.188;2023-05-31T12:41:44;7.60;;;3.55;;
34828;SDS011;21042;47.620;12.188;2023-05-31T12:44:12;8.15;;;3.72;;
34828;SDS011;21042;47.620;12.188;2023-05-31T12:46:40;12.75;;;4.10;;
34828;SDS011;21042;47.620;12.188;2023-05-31T12:49:12;8.23;;;3.70;;
34828;SDS011;21042;47.620;12.188;2023-05-31T12:51:57;8.88;;;3.58;;
34828;SDS011;21042;47.620;12.188;2023-05-31T12:54:25;10.77;;;3.92;;
34828;SDS011;21042;47.620;12.188;2023-05-31T12:56:53;7.38;;;3.63;;
34828;SDS011;21042;47.620;12.188;2023-05-31T12:59:21;6.00;;;3.40;;
34828;SDS011;21042;47.620;12.188;2023-05-31T13:01:48;15.23;;;4.15;;
34828;SDS011;21042;47.620;12.188;2023-05-31T13:04:15;11.18;;;3.75;;
34828;SDS011;21042;47.620;12.188;2023-05-31T13:06:42;9.25;;;3.88;;
34828;SDS011;21042;47.620;12.188;2023-05-31T13:09:09;10.68;;;3.97;;
34828;SDS011;21042;47.620;12.188;2023-05-31T13:11:36;10.73;;;3.75;;
34828;SDS011;21042;47.620;12.188;2023-05-31T13:14:04;7.40;;;3.30;;
34828;SDS011;21042;47.620;12.188;2023-05-31T13:16:32;7.95;;;3.78;;
34828;SDS011;21042;47.620;12.188;2023-05-31T13:18:59;5.70;;;3.55;;
34828;SDS011;21042;47.620;12.188;2023-05-31T13:23:53;8.20;;;3.97;;
34828;SDS011;21042;47.620;12.188;2023-05-31T13:26:21;8.80;;;3.67;;
34828;SDS011;21042;47.620;12.188;2023-05-31T13:28:49;10.70;;;5.10;;
34828;SDS011;21042;47.620;12.188;2023-05-31T13:31:16;9.18;;;3.80;;
34828;SDS011;21042;47.620;12.188;2023-05-31T13:33:44;6.82;;;3.67;;
34828;SDS011;21042;47.620;12.188;2023-05-31T13:36:13;7.30;;;3.55;;
34828;SDS011;21042;47.620;12.188;2023-05-31T13:38:40;7.00;;;3.60;;
34828;SDS011;21042;47.620;12.188;2023-05-31T13:43:35;7.15;;;4.03;;
34828;SDS011;21042;47.620;12.188;2023-05-31T13:46:05;9.50;;;3.97;;
34828;SDS011;21042;47.620;12.188;2023-05-31T13:48:38;7.40;;;3.92;;
34828;SDS011;21042;47.620;12.188;2023-05-31T13:51:05;8.85;;;4.60;;
34828;SDS011;21042;47.620;12.188;2023-05-31T13:53:32;7.97;;;3.67;;
34828;SDS011;21042;47.620;12.188;2023-05-31T13:55:59;6.75;;;3.88;;
34828;SDS011;21042;47.620;12.188;2023-05-31T13:58:29;12.25;;;4.20;;
34828;SDS011;21042;47.620;12.188;2023-05-31T14:00:56;10.05;;;4.32;;
34828;SDS011;21042;47.620;12.188;2023-05-31T14:03:23;7.25;;;3.92;;
34828;SDS011;21042;47.620;12.188;2023-05-31T14:05:50;5.53;;;3.40;;
34828;SDS011;21042;47.620;12.188;2023-05-31T14:08:17;11.88;;;4.47;;
34828;SDS011;21042;47.620;12.188;2023-05-31T14:10:44;6.68;;;4.20;;
34828;SDS011;21042;47.620;12.188;2023-05-31T14:15:38;7.07;;;3.70;;
34828;SDS011;21042;47.620;12.188;2023-05-31T14:18:06;7.97;;;4.22;;
34828;SDS011;21042;47.620;12.188;2023-05-31T14:22:59;8.75;;;4.10;;
34828;SDS011;21042;47.620;12.188;2023-05-31T14:25:28;7.18;;;3.75;;
34828;SDS011;21042;47.620;12.188;2023-05-31T14:30:22;9.82;;;4.38;;
34828;SDS011;21042;47.620;12.188;2023-05-31T14:32:50;7.22;;;4.10;;
34828;SDS011;21042;47.620;12.188;2023-05-31T14:35:17;14.48;;;4.22;;
34828;SDS011;21042;47.620;12.188;2023-05-31T14:40:17;14.48;;;3.80;;
34828;SDS011;21042;47.620;12.188;2023-05-31T14:42:44;8.18;;;4.13;;
34828;SDS011;21042;47.620;12.188;2023-05-31T14:45:11;12.48;;;4.10;;
34828;SDS011;21042;47.620;12.188;2023-05-31T14:47:38;7.22;;;3.90;;
34828;SDS011;21042;47.620;12.188;2023-05-31T14:50:06;7.38;;;3.80;;
34828;SDS011;21042;47.620;12.188;2023-05-31T14:54:59;10.35;;;3.83;;
34828;SDS011;21042;47.620;12.188;2023-05-31T14:57:26;5.93;;;4.13;;
34828;SDS011;21042;47.620;12.188;2023-05-31T14:59:53;6.60;;;3.90;;
34828;SDS011;21042;47.620;12.188;2023-05-31T15:02:20;9.30;;;4.00;;
34828;SDS011;21042;47.620;12.188;2023-05-31T15:04:46;12.32;;;4.47;;
34828;SDS011;21042;47.620;12.188;2023-05-31T15:07:13;5.60;;;3.65;;
34828;SDS011;21042;47.620;12.188;2023-05-31T15:12:07;6.10;;;4.03;;
34828;SDS011;21042;47.620;12.188;2023-05-31T15:14:35;7.43;;;3.95;;
34828;SDS011;21042;47.620;12.188;2023-05-31T15:17:02;5.93;;;3.75;;
34828;SDS011;21042;47.620;12.188;2023-05-31T15:21:56;8.82;;;3.67;;
34828;SDS011;21042;47.620;12.188;2023-05-31T15:24:23;21.95;;;4.65;;
34828;SDS011;21042;47.620;12.188;2023-05-31T15:26:50;13.32;;;4.38;;
34828;SDS011;21042;47.620;12.188;2023-05-31T15:29:18;5.63;;;3.63;;
34828;SDS011;21042;47.620;12.188;2023-05-31T15:31:45;6.72;;;4.38;;
34828;SDS011;21042;47.620;12.188;2023-05-31T15:36:38;12.05;;;3.90;;
34828;SDS011;21042;47.620;12.188;2023-05-31T15:39:05;10.05;;;4.35;;
34828;SDS011;21042;47.620;12.188;2023-05-31T15:41:33;4.68;;;3.70;;
34828;SDS011;21042;47.620;12.188;2023-05-31T15:44:00;7.90;;;3.92;;
34828;SDS011;21042;47.620;12.188;2023-05-31T15:46:28;7.75;;;3.80;;
34828;SDS011;21042;47.620;12.188;2023-05-31T15:48:55;7.63;;;4.00;;
34828;SDS011;21042;47.620;12.188;2023-05-31T15:51:22;11.15;;;3.83;;
34828;SDS011;21042;47.620;12.188;2023-05-31T15:53:49;8.32;;;4.22;;